sensor_id;sensor_type;location;lat;lon;timestamp;P1;durP1;ratioP1;P2;durP2;ratioP2
5475;SDS011;2760;50.000;9.194;2023-07-09T00:01:10;8.23;;;5.80;;
5475;SDS011;2760;50.000;9.194;2023-07-09T00:03:40;13.67;;;5.50;;
5475;SDS011;2760;50.000;9.194;2023-07-09T00:06:07;10.67;;;5.40;;
5475;SDS011;2760;50.000;9.194;2023-07-09T00:08:34;11.53;;;5.30;;
5475;SDS011;2760;50.000;9.194;2023-07-09T00:11:03;10.63;;;5.00;;
5475;SDS011;2760;50.000;9.194;2023-07-09T00:13:31;7.07;;;4.67;;
5475;SDS011;2760;50.000;9.194;2023-07-09T00:15:59;5.70;;;4.33;;
5475;SDS011;2760;50.000;9.194;2023-07-09T00:18:28;6.60;;;4.90;;
5475;SDS011;2760;50.000;9.194;2023-07-09T00:20:55;14.17;;;5.80;;
5475;SDS011;2760;50.000;9.194;2023-07-09T00:23:24;13.50;;;4.80;;
5475;SDS011;2760;50.000;9.194;2023-07-09T00:25:52;8.17;;;5.23;;
5475;SDS011;2760;50.000;9.194;2023-07-09T00:28:19;7.80;;;5.17;;
5475;SDS011;2760;50.000;9.194;2023-07-09T00:30:48;14.50;;;5.70;;
5475;SDS011;2760;50.000;9.194;2023-07-09T00:33:16;15.20;;;6.40;;
5475;SDS011;2760;50.000;9.194;2023-07-09T00:35:45;8.10;;;5.40;;
5475;SDS011;2760;50.000;9.194;2023-07-09T00:38:14;8.13;;;4.83;;
5475;SDS011;2760;50.000;9.194;2023-07-09T00:40:46;8.97;;;5.67;;
5475;SDS011;2760;50.000;9.194;2023-07-09T00:43:15;8.07;;;5.20;;
5475;SDS011;2760;50.000;9.194;2023-07-09T00:45:42;12.90;;;5.63;;
5475;SDS011;2760;50.000;9.194;2023-07-09T00:48:13;6.50;;;4.93;;
5475;SDS011;2760;50.000;9.194;2023-07-09T00:50:45;13.40;;;5.30;;
5475;SDS011;2760;50.000;9.194;2023-07-09T00:53:17;11.47;;;6.13;;
5475;SDS011;2760;50.000;9.194;2023-07-09T00:55:49;8.13;;;5.20;;
5475;SDS011;2760;50.000;9.194;2023-07-09T00:58:21;9.00;;;5.40;;
5475;SDS011;2760;50.000;9.194;2023-07-09T01:00:53;11.07;;;5.73;;
5475;SDS011;2760;50.000;9.194;2023-07-09T01:03:32;11.07;;;6.03;;
5475;SDS011;2760;50.000;9.194;2023-07-09T01:06:01;8.97;;;5.07;;
5475;SDS011;2760;50.000;9.194;2023-07-09T01:08:31;8.03;;;5.23;;
5475;SDS011;2760;50.000;9.194;2023-07-09T01:11:00;7.27;;;5.47;;
5475;SDS011;2760;50.000;9.194;2023-07-09T01:13:28;16.13;;;5.73;;
5475;SDS011;2760;50.000;9.194;2023-07-09T01:15:57;8.60;;;5.50;;
5475;SDS011;2760;50.000;9.194;2023-07-09T01:18:25;11.20;;;5.83;;
5475;SDS011;2760;50.000;9.194;2023-07-09T01:20:58;13.53;;;5.97;;
5475;SDS011;2760;50.000;9.194;2023-07-09T01:23:40;8.17;;;5.70;;
5475;SDS011;2760;50.000;9.194;2023-07-09T01:26:09;9.33;;;5.90;;
5475;SDS011;2760;50.000;9.194;2023-07-09T01:28:38;9.97;;;5.60;;
5475;SDS011;2760;50.000;9.194;2023-07-09T01:31:07;11.33;;;6.07;;
5475;SDS011;2760;50.000;9.194;2023-07-09T01:33:35;16.10;;;6.67;;
5475;SDS011;2760;50.000;9.194;2023-07-09T01:36:06;8.50;;;5.90;;
5475;SDS011;2760;50.000;9.194;2023-07-09T01:38:33;7.47;;;5.47;;
5475;SDS011;2760;50.000;9.194;2023-07-09T01:41:02;10.80;;;6.67;;
5475;SDS011;2760;50.000;9.194;2023-07-09T01:43:31;7.17;;;5.77;;
5475;SDS011;2760;50.000;9.194;2023-07-09T01:46:00;9.03;;;6.10;;
5475;SDS011;2760;50.000;9.194;2023-07-09T01:48:27;15.50;;;6.57;;
5475;SDS011;2760;50.000;9.194;2023-07-09T01:50:54;14.03;;;5.60;;
5475;SDS011;2760;50.000;9.194;2023-07-09T01:53:25;11.03;;;6.17;;
5475;SDS011;2760;50.000;9.194;2023-07-09T01:55:56;9.40;;;6.20;;
5475;SDS011;2760;50.000;9.194;2023-07-09T01:58:23;7.43;;;5.20;;
5475;SDS011;2760;50.000;9.194;2023-07-09T02:00:51;6.43;;;5.00;;
5475;SDS011;2760;50.000;9.194;2023-07-09T02:03:18;8.30;;;5.43;;
5475;SDS011;2760;50.000;9.194;2023-07-09T02:05:47;9.70;;;5.47;;
5475;SDS011;2760;50.000;9.194;2023-07-09T02:08:16;9.90;;;5.80;;
5475;SDS011;2760;50.000;9.194;2023-07-09T02:10:44;9.60;;;5.50;;
5475;SDS011;2760;50.000;9.194;2023-07-09T02:13:14;7.50;;;5.53;;
5475;SDS011;2760;50.000;9.194;2023-07-09T02:15:42;14.50;;;5.70;;
5475;SDS011;2760;50.000;9.194;2023-07-09T02:18:10;9.23;;;4.90;;
5475;SDS011;2760;50.000;9.194;2023-07-09T02:20:37;7.40;;;5.40;;
5475;SDS011;2760;50.000;9.194;2023-07-09T02:23:07;9.13;;;5.33;;
5475;SDS011;2760;50.000;9.194;2023-07-09T02:25:34;10.10;;;5.43;;
5475;SDS011;2760;50.000;9.194;2023-07-09T02:28:03;8.23;;;5.43;;
5475;SDS011;2760;50.000;9.194;2023-07-09T02:30:30;9.13;;;6.27;;
5475;SDS011;2760;50.000;9.194;2023-07-09T02:32:58;8.30;;;5.33;;
5475;SDS011;2760;50.000;9.194;2023-07-09T02:35:27;11.30;;;5.30;;
5475;SDS011;2760;50.000;9.194;2023-07-09T02:37:54;8.97;;;5.57;;
5475;SDS011;2760;50.000;9.194;2023-07-09T02:40:21;14.53;;;5.80;;
5475;SDS011;2760;50.000;9.194;2023-07-09T02:42:48;11.07;;;5.57;;
5475;SDS011;2760;50.000;9.194;2023-07-09T02:45:18;6.40;;;5.20;;
5475;SDS011;2760;50.000;9.194;2023-07-09T02:47:46;12.70;;;6.33;;
5475;SDS011;2760;50.000;9.194;2023-07-09T02:50:14;14.17;;;6.07;;
5475;SDS011;2760;50.000;9.194;2023-07-09T02:52:41;10.03;;;5.80;;
5475;SDS011;2760;50.000;9.194;2023-07-09T02:55:09;8.27;;;5.30;;
5475;SDS011;2760;50.000;9.194;2023-07-09T02:57:37;9.40;;;5.50;;
5475;SDS011;2760;50.000;9.194;2023-07-09T03:00:04;16.17;;;5.90;;
5475;SDS011;2760;50.000;9.194;2023-07-09T03:02:34;12.23;;;6.17;;
5475;SDS011;2760;50.000;9.194;2023-07-09T03:05:02;9.03;;;5.97;;
5475;SDS011;2760;50.000;9.194;2023-07-09T03:07:29;7.37;;;5.70;;
5475;SDS011;2760;50.000;9.194;2023-07-09T03:09:56;7.60;;;6.20;;
5475;SDS011;2760;50.000;9.194;2023-07-09T03:12:23;8.53;;;6.00;;
5475;SDS011;2760;50.000;9.194;2023-07-09T03:14:50;9.03;;;5.90;;
5475;SDS011;2760;50.000;9.194;2023-07-09T03:17:17;8.77;;;5.67;;
5475;SDS011;2760;50.000;9.194;2023-07-09T03:19:45;7.93;;;5.33;;
5475;SDS011;2760;50.000;9.194;2023-07-09T03:22:13;11.40;;;5.80;;
5475;SDS011;2760;50.000;9.194;2023-07-09T03:24:40;8.63;;;5.80;;
5475;SDS011;2760;50.000;9.194;2023-07-09T03:27:07;15.60;;;8.83;;
5475;SDS011;2760;50.000;9.194;2023-07-09T03:29:34;11.87;;;6.27;;
5475;SDS011;2760;50.000;9.194;2023-07-09T03:47:45;7.23;;;6.00;;
5475;SDS011;2760;50.000;9.194;2023-07-09T04:02:41;6.10;;;5.00;;
5475;SDS011;2760;50.000;9.194;2023-07-09T04:06:11;6.27;;;5.03;;
5475;SDS011;2760;50.000;9.194;2023-07-09T04:08:38;11.50;;;5.50;;
5475;SDS011;2760;50.000;9.194;2023-07-09T04:11:05;9.60;;;5.47;;
5475;SDS011;2760;50.000;9.194;2023-07-09T04:13:34;13.10;;;7.20;;
5475;SDS011;2760;50.000;9.194;2023-07-09T04:16:03;8.70;;;5.20;;
5475;SDS011;2760;50.000;9.194;2023-07-09T04:18:30;7.83;;;4.87;;
5475;SDS011;2760;50.000;9.194;2023-07-09T04:20:57;9.83;;;5.00;;
5475;SDS011;2760;50.000;9.194;2023-07-09T04:23:26;9.10;;;5.40;;
5475;SDS011;2760;50.000;9.194;2023-07-09T04:25:57;11.83;;;5.63;;
5475;SDS011;2760;50.000;9.194;2023-07-09T04:28:27;5.73;;;5.13;;
5475;SDS011;2760;50.000;9.194;2023-07-09T04:30:58;11.03;;;6.17;;
5475;SDS011;2760;50.000;9.194;2023-07-09T04:33:35;9.53;;;5.87;;
5475;SDS011;2760;50.000;9.194;2023-07-09T04:36:19;23.73;;;6.20;;
5475;SDS011;2760;50.000;9.194;2023-07-09T04:38:49;7.27;;;5.23;;
5475;SDS011;2760;50.000;9.194;2023-07-09T04:41:16;11.77;;;6.23;;
5475;SDS011;2760;50.000;9.194;2023-07-09T04:43:44;8.77;;;5.60;;
5475;SDS011;2760;50.000;9.194;2023-07-09T04:47:31;11.00;;;5.70;;
5475;SDS011;2760;50.000;9.194;2023-07-09T04:56:18;7.00;;;5.27;;
5475;SDS011;2760;50.000;9.194;2023-07-09T04:58:48;7.90;;;5.23;;
5475;SDS011;2760;50.000;9.194;2023-07-09T05:02:31;9.43;;;6.17;;
5475;SDS011;2760;50.000;9.194;2023-07-09T05:37:05;7.67;;;4.70;;
5475;SDS011;2760;50.000;9.194;2023-07-09T05:39:40;6.27;;;4.60;;
5475;SDS011;2760;50.000;9.194;2023-07-09T05:42:23;10.57;;;5.57;;
5475;SDS011;2760;50.000;9.194;2023-07-09T05:44:56;10.63;;;5.20;;
5475;SDS011;2760;50.000;9.194;2023-07-09T05:47:39;5.03;;;4.50;;
5475;SDS011;2760;50.000;9.194;2023-07-09T05:58:14;9.47;;;5.03;;
5475;SDS011;2760;50.000;9.194;2023-07-09T06:08:26;5.30;;;4.13;;
5475;SDS011;2760;50.000;9.194;2023-07-09T06:11:10;5.63;;;4.30;;
5475;SDS011;2760;50.000;9.194;2023-07-09T06:14:04;7.40;;;4.30;;
5475;SDS011;2760;50.000;9.194;2023-07-09T06:16:39;12.23;;;4.93;;
5475;SDS011;2760;50.000;9.194;2023-07-09T06:20:00;4.67;;;4.20;;
5475;SDS011;2760;50.000;9.194;2023-07-09T06:22:50;8.60;;;4.87;;
5475;SDS011;2760;50.000;9.194;2023-07-09T06:26:05;7.57;;;4.80;;
5475;SDS011;2760;50.000;9.194;2023-07-09T06:29:30;6.20;;;4.40;;
5475;SDS011;2760;50.000;9.194;2023-07-09T06:32:44;6.63;;;4.27;;
5475;SDS011;2760;50.000;9.194;2023-07-09T06:35:57;5.47;;;4.37;;
5475;SDS011;2760;50.000;9.194;2023-07-09T06:38:28;7.30;;;4.60;;
5475;SDS011;2760;50.000;9.194;2023-07-09T06:41:09;5.00;;;4.13;;
5475;SDS011;2760;50.000;9.194;2023-07-09T06:44:41;8.13;;;4.30;;
5475;SDS011;2760;50.000;9.194;2023-07-09T06:47:39;8.10;;;3.97;;
5475;SDS011;2760;50.000;9.194;2023-07-09T06:50:58;7.37;;;4.60;;
5475;SDS011;2760;50.000;9.194;2023-07-09T06:54:09;11.00;;;4.70;;
5475;SDS011;2760;50.000;9.194;2023-07-09T07:27:44;5.50;;;3.73;;
5475;SDS011;2760;50.000;9.194;2023-07-09T08:56:11;11.27;;;4.13;;
5475;SDS011;2760;50.000;9.194;2023-07-09T08:58:55;12.03;;;4.83;;
5475;SDS011;2760;50.000;9.194;2023-07-09T09:02:14;8.30;;;4.47;;
5475;SDS011;2760;50.000;9.194;2023-07-09T09:07:14;8.33;;;4.80;;
5475;SDS011;2760;50.000;9.194;2023-07-09T09:23:53;10.10;;;4.87;;
5475;SDS011;2760;50.000;9.194;2023-07-09T09:30:51;7.50;;;4.80;;
5475;SDS011;2760;50.000;9.194;2023-07-09T09:35:10;6.60;;;3.90;;
5475;SDS011;2760;50.000;9.194;2023-07-09T09:38:08;12.80;;;5.03;;
5475;SDS011;2760;50.000;9.194;2023-07-09T09:41:19;26.37;;;4.57;;
5475;SDS011;2760;50.000;9.194;2023-07-09T09:43:57;8.27;;;4.33;;
5475;SDS011;2760;50.000;9.194;2023-07-09T09:47:03;8.00;;;4.70;;
5475;SDS011;2760;50.000;9.194;2023-07-09T09:50:52;5.50;;;4.60;;
5475;SDS011;2760;50.000;9.194;2023-07-09T09:56:05;7.10;;;4.60;;
5475;SDS011;2760;50.000;9.194;2023-07-09T09:58:59;6.90;;;4.00;;
5475;SDS011;2760;50.000;9.194;2023-07-09T10:02:24;7.43;;;4.10;;
5475;SDS011;2760;50.000;9.194;2023-07-09T10:05:21;8.70;;;4.10;;
5475;SDS011;2760;50.000;9.194;2023-07-09T10:07:59;8.57;;;3.97;;
5475;SDS011;2760;50.000;9.194;2023-07-09T10:10:33;8.60;;;4.20;;
5475;SDS011;2760;50.000;9.194;2023-07-09T10:13:02;6.97;;;3.97;;
5475;SDS011;2760;50.000;9.194;2023-07-09T10:15:39;11.10;;;4.43;;
5475;SDS011;2760;50.000;9.194;2023-07-09T10:18:24;5.83;;;3.93;;
5475;SDS011;2760;50.000;9.194;2023-07-09T10:21:05;6.53;;;4.30;;
5475;SDS011;2760;50.000;9.194;2023-07-09T10:23:38;6.53;;;4.80;;
5475;SDS011;2760;50.000;9.194;2023-07-09T10:26:40;10.30;;;4.03;;
5475;SDS011;2760;50.000;9.194;2023-07-09T10:36:40;13.47;;;4.03;;
5475;SDS011;2760;50.000;9.194;2023-07-09T10:39:33;11.27;;;4.27;;
5475;SDS011;2760;50.000;9.194;2023-07-09T10:42:10;10.07;;;4.50;;
5475;SDS011;2760;50.000;9.194;2023-07-09T10:44:44;9.70;;;4.00;;
5475;SDS011;2760;50.000;9.194;2023-07-09T10:47:23;5.83;;;4.07;;
5475;SDS011;2760;50.000;9.194;2023-07-09T10:49:57;6.77;;;3.57;;
5475;SDS011;2760;50.000;9.194;2023-07-09T10:52:36;5.33;;;3.60;;
5475;SDS011;2760;50.000;9.194;2023-07-09T10:55:19;5.70;;;3.57;;
5475;SDS011;2760;50.000;9.194;2023-07-09T10:58:18;9.33;;;4.47;;
5475;SDS011;2760;50.000;9.194;2023-07-09T11:01:04;8.13;;;4.80;;
5475;SDS011;2760;50.000;9.194;2023-07-09T11:03:47;7.57;;;4.80;;
5475;SDS011;2760;50.000;9.194;2023-07-09T11:07:03;6.93;;;4.60;;
5475;SDS011;2760;50.000;9.194;2023-07-09T11:09:41;6.30;;;4.40;;
5475;SDS011;2760;50.000;9.194;2023-07-09T11:12:32;9.53;;;4.47;;
5475;SDS011;2760;50.000;9.194;2023-07-09T11:15:06;6.87;;;4.13;;
5475;SDS011;2760;50.000;9.194;2023-07-09T11:21:19;9.60;;;5.27;;
5475;SDS011;2760;50.000;9.194;2023-07-09T11:24:02;5.97;;;4.03;;
5475;SDS011;2760;50.000;9.194;2023-07-09T11:26:52;5.43;;;4.23;;
5475;SDS011;2760;50.000;9.194;2023-07-09T11:41:29;8.80;;;4.90;;
5475;SDS011;2760;50.000;9.194;2023-07-09T11:44:12;7.70;;;4.40;;
5475;SDS011;2760;50.000;9.194;2023-07-09T11:46:50;6.10;;;4.27;;
5475;SDS011;2760;50.000;9.194;2023-07-09T11:49:49;6.83;;;4.20;;
5475;SDS011;2760;50.000;9.194;2023-07-09T11:52:27;7.00;;;4.60;;
5475;SDS011;2760;50.000;9.194;2023-07-09T12:07:09;5.57;;;3.83;;
5475;SDS011;2760;50.000;9.194;2023-07-09T12:10:36;4.93;;;4.20;;
5475;SDS011;2760;50.000;9.194;2023-07-09T12:14:01;7.50;;;4.20;;
5475;SDS011;2760;50.000;9.194;2023-07-09T12:17:14;8.17;;;4.40;;
5475;SDS011;2760;50.000;9.194;2023-07-09T12:20:23;9.63;;;4.27;;
5475;SDS011;2760;50.000;9.194;2023-07-09T12:31:03;9.00;;;4.80;;
5475;SDS011;2760;50.000;9.194;2023-07-09T12:33:56;11.83;;;5.60;;
5475;SDS011;2760;50.000;9.194;2023-07-09T12:36:26;10.07;;;4.80;;
5475;SDS011;2760;50.000;9.194;2023-07-09T12:38:55;7.20;;;5.07;;
5475;SDS011;2760;50.000;9.194;2023-07-09T12:41:29;6.07;;;4.50;;
5475;SDS011;2760;50.000;9.194;2023-07-09T12:44:04;7.77;;;4.80;;
5475;SDS011;2760;50.000;9.194;2023-07-09T12:46:46;8.00;;;4.60;;
5475;SDS011;2760;50.000;9.194;2023-07-09T12:49:25;5.90;;;4.63;;
5475;SDS011;2760;50.000;9.194;2023-07-09T12:52:35;11.67;;;4.30;;
5475;SDS011;2760;50.000;9.194;2023-07-09T13:27:18;11.63;;;4.70;;
5475;SDS011;2760;50.000;9.194;2023-07-09T13:37:05;6.37;;;4.23;;
5475;SDS011;2760;50.000;9.194;2023-07-09T13:51:56;8.87;;;4.30;;
5475;SDS011;2760;50.000;9.194;2023-07-09T13:54:26;6.30;;;4.10;;
5475;SDS011;2760;50.000;9.194;2023-07-09T13:57:06;7.77;;;4.50;;
5475;SDS011;2760;50.000;9.194;2023-07-09T13:59:56;8.97;;;4.50;;
5475;SDS011;2760;50.000;9.194;2023-07-09T14:02:24;13.57;;;4.60;;
5475;SDS011;2760;50.000;9.194;2023-07-09T14:04:56;4.90;;;4.10;;
5475;SDS011;2760;50.000;9.194;2023-07-09T14:07:26;5.90;;;4.30;;
5475;SDS011;2760;50.000;9.194;2023-07-09T14:09:55;8.00;;;5.03;;
5475;SDS011;2760;50.000;9.194;2023-07-09T14:12:22;7.03;;;3.90;;
5475;SDS011;2760;50.000;9.194;2023-07-09T14:14:49;9.70;;;4.57;;
5475;SDS011;2760;50.000;9.194;2023-07-09T14:17:18;9.70;;;4.47;;
5475;SDS011;2760;50.000;9.194;2023-07-09T14:19:47;6.50;;;4.20;;
5475;SDS011;2760;50.000;9.194;2023-07-09T14:22:19;6.40;;;4.50;;
5475;SDS011;2760;50.000;9.194;2023-07-09T14:24:51;8.53;;;4.07;;
5475;SDS011;2760;50.000;9.194;2023-07-09T14:27:18;5.90;;;4.23;;
5475;SDS011;2760;50.000;9.194;2023-07-09T14:29:46;10.30;;;4.83;;
5475;SDS011;2760;50.000;9.194;2023-07-09T14:32:32;6.00;;;3.87;;
5475;SDS011;2760;50.000;9.194;2023-07-09T14:35:01;7.57;;;4.40;;
5475;SDS011;2760;50.000;9.194;2023-07-09T14:37:30;7.50;;;4.03;;
5475;SDS011;2760;50.000;9.194;2023-07-09T14:39:58;6.37;;;4.50;;
5475;SDS011;2760;50.000;9.194;2023-07-09T14:42:25;15.00;;;4.63;;
5475;SDS011;2760;50.000;9.194;2023-07-09T14:44:52;4.87;;;4.10;;
5475;SDS011;2760;50.000;9.194;2023-07-09T14:47:21;8.17;;;5.07;;
5475;SDS011;2760;50.000;9.194;2023-07-09T14:49:50;9.30;;;4.77;;
5475;SDS011;2760;50.000;9.194;2023-07-09T14:52:17;9.47;;;5.00;;
5475;SDS011;2760;50.000;9.194;2023-07-09T14:54:47;6.27;;;4.00;;
5475;SDS011;2760;50.000;9.194;2023-07-09T14:57:18;9.83;;;4.63;;
5475;SDS011;2760;50.000;9.194;2023-07-09T14:59:47;9.37;;;4.60;;
5475;SDS011;2760;50.000;9.194;2023-07-09T15:02:21;8.47;;;4.20;;
5475;SDS011;2760;50.000;9.194;2023-07-09T15:04:51;6.77;;;4.37;;
5475;SDS011;2760;50.000;9.194;2023-07-09T15:07:18;14.73;;;4.70;;
5475;SDS011;2760;50.000;9.194;2023-07-09T15:09:44;6.07;;;4.10;;
5475;SDS011;2760;50.000;9.194;2023-07-09T15:12:20;4.63;;;3.83;;
5475;SDS011;2760;50.000;9.194;2023-07-09T15:14:51;9.90;;;4.47;;
5475;SDS011;2760;50.000;9.194;2023-07-09T15:17:27;6.07;;;4.50;;
5475;SDS011;2760;50.000;9.194;2023-07-09T15:19:54;5.20;;;4.30;;
5475;SDS011;2760;50.000;9.194;2023-07-09T15:22:30;10.37;;;4.30;;
5475;SDS011;2760;50.000;9.194;2023-07-09T15:24:59;9.13;;;4.40;;
5475;SDS011;2760;50.000;9.194;2023-07-09T15:27:28;10.03;;;4.37;;
5475;SDS011;2760;50.000;9.194;2023-07-09T15:29:55;10.73;;;5.30;;
5475;SDS011;2760;50.000;9.194;2023-07-09T15:32:22;5.83;;;3.60;;
5475;SDS011;2760;50.000;9.194;2023-07-09T15:34:49;7.10;;;4.27;;
5475;SDS011;2760;50.000;9.194;2023-07-09T15:37:16;6.93;;;5.03;;
5475;SDS011;2760;50.000;9.194;2023-07-09T15:39:43;10.17;;;4.90;;
5475;SDS011;2760;50.000;9.194;2023-07-09T15:42:11;7.90;;;4.30;;
5475;SDS011;2760;50.000;9.194;2023-07-09T15:44:40;8.23;;;4.77;;
5475;SDS011;2760;50.000;9.194;2023-07-09T15:47:13;5.17;;;4.03;;
5475;SDS011;2760;50.000;9.194;2023-07-09T15:49:43;6.37;;;3.70;;
5475;SDS011;2760;50.000;9.194;2023-07-09T15:52:10;8.57;;;5.10;;
5475;SDS011;2760;50.000;9.194;2023-07-09T15:54:38;5.77;;;4.27;;
5475;SDS011;2760;50.000;9.194;2023-07-09T15:57:05;12.20;;;4.60;;
5475;SDS011;2760;50.000;9.194;2023-07-09T15:59:33;8.67;;;4.40;;
5475;SDS011;2760;50.000;9.194;2023-07-09T16:02:08;7.73;;;4.03;;
5475;SDS011;2760;50.000;9.194;2023-07-09T16:04:37;7.70;;;4.23;;
5475;SDS011;2760;50.000;9.194;2023-07-09T16:07:05;5.20;;;3.90;;
5475;SDS011;2760;50.000;9.194;2023-07-09T16:09:31;10.33;;;3.67;;
5475;SDS011;2760;50.000;9.194;2023-07-09T16:11:59;9.30;;;4.60;;
5475;SDS011;2760;50.000;9.194;2023-07-09T16:14:27;9.07;;;4.60;;
5475;SDS011;2760;50.000;9.194;2023-07-09T16:16:56;23.87;;;5.47;;
5475;SDS011;2760;50.000;9.194;2023-07-09T16:19:27;7.13;;;4.10;;
5475;SDS011;2760;50.000;9.194;2023-07-09T16:21:58;7.70;;;4.87;;
5475;SDS011;2760;50.000;9.194;2023-07-09T16:24:28;5.70;;;3.97;;
5475;SDS011;2760;50.000;9.194;2023-07-09T16:26:58;11.37;;;4.30;;
5475;SDS011;2760;50.000;9.194;2023-07-09T16:29:30;8.17;;;4.53;;
5475;SDS011;2760;50.000;9.194;2023-07-09T16:32:00;6.20;;;4.10;;
5475;SDS011;2760;50.000;9.194;2023-07-09T16:34:29;8.40;;;3.70;;
5475;SDS011;2760;50.000;9.194;2023-07-09T16:36:57;11.30;;;5.63;;
5475;SDS011;2760;50.000;9.194;2023-07-09T16:39:25;8.67;;;4.10;;
5475;SDS011;2760;50.000;9.194;2023-07-09T16:41:54;10.73;;;4.23;;
5475;SDS011;2760;50.000;9.194;2023-07-09T16:44:23;9.27;;;5.03;;
5475;SDS011;2760;50.000;9.194;2023-07-09T16:46:50;8.50;;;4.33;;
5475;SDS011;2760;50.000;9.194;2023-07-09T16:49:24;11.43;;;5.50;;
5475;SDS011;2760;50.000;9.194;2023-07-09T16:51:57;7.90;;;4.50;;
5475;SDS011;2760;50.000;9.194;2023-07-09T16:54:24;8.10;;;4.33;;
5475;SDS011;2760;50.000;9.194;2023-07-09T16:56:54;10.20;;;4.60;;
5475;SDS011;2760;50.000;9.194;2023-07-09T16:59:22;9.40;;;4.23;;
5475;SDS011;2760;50.000;9.194;2023-07-09T17:01:50;7.93;;;4.03;;
5475;SDS011;2760;50.000;9.194;2023-07-09T17:04:21;7.87;;;4.10;;
5475;SDS011;2760;50.000;9.194;2023-07-09T17:06:50;8.60;;;4.40;;
5475;SDS011;2760;50.000;9.194;2023-07-09T17:09:20;6.20;;;3.77;;
5475;SDS011;2760;50.000;9.194;2023-07-09T17:11:50;9.13;;;5.60;;
5475;SDS011;2760;50.000;9.194;2023-07-09T17:14:21;4.80;;;3.90;;
5475;SDS011;2760;50.000;9.194;2023-07-09T17:16:48;9.33;;;4.40;;
5475;SDS011;2760;50.000;9.194;2023-07-09T17:19:16;10.00;;;3.67;;
5475;SDS011;2760;50.000;9.194;2023-07-09T17:21:44;7.43;;;3.50;;
5475;SDS011;2760;50.000;9.194;2023-07-09T17:24:16;7.80;;;3.83;;
5475;SDS011;2760;50.000;9.194;2023-07-09T17:26:49;5.93;;;3.80;;
5475;SDS011;2760;50.000;9.194;2023-07-09T17:29:21;18.37;;;4.33;;
5475;SDS011;2760;50.000;9.194;2023-07-09T17:31:57;7.00;;;3.80;;
5475;SDS011;2760;50.000;9.194;2023-07-09T17:34:24;6.13;;;3.60;;
5475;SDS011;2760;50.000;9.194;2023-07-09T17:36:51;8.50;;;4.33;;
5475;SDS011;2760;50.000;9.194;2023-07-09T17:39:18;6.33;;;4.00;;
5475;SDS011;2760;50.000;9.194;2023-07-09T17:41:51;6.13;;;4.10;;
5475;SDS011;2760;50.000;9.194;2023-07-09T17:44:20;12.83;;;4.07;;
5475;SDS011;2760;50.000;9.194;2023-07-09T17:46:49;6.50;;;3.97;;
5475;SDS011;2760;50.000;9.194;2023-07-09T17:49:19;12.70;;;4.57;;
5475;SDS011;2760;50.000;9.194;2023-07-09T17:51:49;7.20;;;4.30;;
5475;SDS011;2760;50.000;9.194;2023-07-09T17:54:16;9.43;;;4.10;;
5475;SDS011;2760;50.000;9.194;2023-07-09T17:56:45;8.30;;;5.03;;
5475;SDS011;2760;50.000;9.194;2023-07-09T17:59:15;4.43;;;3.93;;
5475;SDS011;2760;50.000;9.194;2023-07-09T18:01:46;13.60;;;5.13;;
5475;SDS011;2760;50.000;9.194;2023-07-09T18:04:17;8.30;;;4.60;;
5475;SDS011;2760;50.000;9.194;2023-07-09T18:06:46;8.97;;;5.30;;
5475;SDS011;2760;50.000;9.194;2023-07-09T18:09:16;11.63;;;5.20;;
5475;SDS011;2760;50.000;9.194;2023-07-09T18:11:44;10.03;;;5.13;;
5475;SDS011;2760;50.000;9.194;2023-07-09T18:14:18;13.23;;;4.90;;
5475;SDS011;2760;50.000;9.194;2023-07-09T18:16:48;10.17;;;4.67;;
5475;SDS011;2760;50.000;9.194;2023-07-09T18:19:19;12.40;;;5.80;;
5475;SDS011;2760;50.000;9.194;2023-07-09T18:21:48;7.40;;;5.03;;
5475;SDS011;2760;50.000;9.194;2023-07-09T18:24:18;9.37;;;4.70;;
5475;SDS011;2760;50.000;9.194;2023-07-09T18:26:47;13.40;;;5.67;;
5475;SDS011;2760;50.000;9.194;2023-07-09T18:29:25;7.70;;;5.20;;
5475;SDS011;2760;50.000;9.194;2023-07-09T18:31:56;10.53;;;5.23;;
5475;SDS011;2760;50.000;9.194;2023-07-09T18:34:28;12.73;;;6.10;;
5475;SDS011;2760;50.000;9.194;2023-07-09T18:36:55;12.87;;;4.50;;
5475;SDS011;2760;50.000;9.194;2023-07-09T18:39:22;9.27;;;5.10;;
5475;SDS011;2760;50.000;9.194;2023-07-09T18:41:49;10.73;;;4.23;;
5475;SDS011;2760;50.000;9.194;2023-07-09T18:44:18;8.47;;;5.03;;
5475;SDS011;2760;50.000;9.194;2023-07-09T18:46:48;12.00;;;4.50;;
5475;SDS011;2760;50.000;9.194;2023-07-09T18:49:15;19.67;;;5.63;;
5475;SDS011;2760;50.000;9.194;2023-07-09T18:51:42;21.77;;;6.00;;
5475;SDS011;2760;50.000;9.194;2023-07-09T18:54:11;11.70;;;5.77;;
5475;SDS011;2760;50.000;9.194;2023-07-09T18:56:41;10.33;;;5.43;;
5475;SDS011;2760;50.000;9.194;2023-07-09T18:59:10;12.50;;;6.10;;
5475;SDS011;2760;50.000;9.194;2023-07-09T19:01:42;13.73;;;6.13;;
5475;SDS011;2760;50.000;9.194;2023-07-09T19:04:16;12.83;;;5.03;;
5475;SDS011;2760;50.000;9.194;2023-07-09T19:06:43;8.17;;;5.13;;
5475;SDS011;2760;50.000;9.194;2023-07-09T19:09:13;15.37;;;5.17;;
5475;SDS011;2760;50.000;9.194;2023-07-09T19:11:42;14.67;;;5.10;;
5475;SDS011;2760;50.000;9.194;2023-07-09T19:14:09;11.70;;;5.40;;
5475;SDS011;2760;50.000;9.194;2023-07-09T19:16:36;10.50;;;5.77;;
5475;SDS011;2760;50.000;9.194;2023-07-09T19:19:05;11.90;;;4.60;;
5475;SDS011;2760;50.000;9.194;2023-07-09T19:21:40;14.00;;;4.63;;
5475;SDS011;2760;50.000;9.194;2023-07-09T19:24:11;15.10;;;4.50;;
5475;SDS011;2760;50.000;9.194;2023-07-09T19:26:44;12.00;;;4.80;;
5475;SDS011;2760;50.000;9.194;2023-07-09T19:29:11;9.70;;;4.20;;
5475;SDS011;2760;50.000;9.194;2023-07-09T19:31:38;12.80;;;4.97;;
5475;SDS011;2760;50.000;9.194;2023-07-09T19:34:08;7.20;;;4.47;;
5475;SDS011;2760;50.000;9.194;2023-07-09T19:36:44;17.57;;;4.60;;
5475;SDS011;2760;50.000;9.194;2023-07-09T19:39:23;8.73;;;4.70;;
5475;SDS011;2760;50.000;9.194;2023-07-09T19:41:52;11.60;;;5.37;;
5475;SDS011;2760;50.000;9.194;2023-07-09T19:44:20;17.43;;;5.83;;
5475;SDS011;2760;50.000;9.194;2023-07-09T19:46:48;9.90;;;4.73;;
5475;SDS011;2760;50.000;9.194;2023-07-09T19:49:15;10.30;;;4.77;;
5475;SDS011;2760;50.000;9.194;2023-07-09T19:51:42;11.30;;;4.90;;
5475;SDS011;2760;50.000;9.194;2023-07-09T19:54:12;13.00;;;4.70;;
5475;SDS011;2760;50.000;9.194;2023-07-09T19:56:41;13.20;;;5.27;;
5475;SDS011;2760;50.000;9.194;2023-07-09T19:59:09;7.90;;;4.60;;
5475;SDS011;2760;50.000;9.194;2023-07-09T20:01:36;9.47;;;4.50;;
5475;SDS011;2760;50.000;9.194;2023-07-09T20:04:04;11.87;;;5.17;;
5475;SDS011;2760;50.000;9.194;2023-07-09T20:06:31;8.47;;;4.70;;
5475;SDS011;2760;50.000;9.194;2023-07-09T20:08:58;13.67;;;4.30;;
5475;SDS011;2760;50.000;9.194;2023-07-09T20:11:26;13.73;;;4.60;;
5475;SDS011;2760;50.000;9.194;2023-07-09T20:13:53;20.83;;;5.53;;
5475;SDS011;2760;50.000;9.194;2023-07-09T20:16:22;14.77;;;5.50;;
5475;SDS011;2760;50.000;9.194;2023-07-09T20:18:51;10.50;;;5.70;;
5475;SDS011;2760;50.000;9.194;2023-07-09T20:21:20;10.67;;;5.20;;
5475;SDS011;2760;50.000;9.194;2023-07-09T20:23:48;11.50;;;4.90;;
5475;SDS011;2760;50.000;9.194;2023-07-09T20:26:16;10.67;;;6.10;;
5475;SDS011;2760;50.000;9.194;2023-07-09T20:28:44;11.73;;;5.03;;
5475;SDS011;2760;50.000;9.194;2023-07-09T20:31:16;16.50;;;5.40;;
5475;SDS011;2760;50.000;9.194;2023-07-09T20:33:44;19.47;;;5.67;;
5475;SDS011;2760;50.000;9.194;2023-07-09T20:36:11;10.80;;;5.63;;
5475;SDS011;2760;50.000;9.194;2023-07-09T20:38:38;10.67;;;5.40;;
5475;SDS011;2760;50.000;9.194;2023-07-09T20:41:07;10.70;;;5.70;;
5475;SDS011;2760;50.000;9.194;2023-07-09T20:43:44;14.63;;;6.70;;
5475;SDS011;2760;50.000;9.194;2023-07-09T20:46:11;14.37;;;5.77;;
5475;SDS011;2760;50.000;9.194;2023-07-09T20:48:43;15.10;;;5.63;;
5475;SDS011;2760;50.000;9.194;2023-07-09T20:51:10;10.57;;;5.10;;
5475;SDS011;2760;50.000;9.194;2023-07-09T20:53:37;10.70;;;5.70;;
5475;SDS011;2760;50.000;9.194;2023-07-09T20:56:04;15.50;;;5.90;;
5475;SDS011;2760;50.000;9.194;2023-07-09T20:58:36;12.13;;;5.23;;
5475;SDS011;2760;50.000;9.194;2023-07-09T21:01:04;7.23;;;5.20;;
5475;SDS011;2760;50.000;9.194;2023-07-09T21:03:31;11.83;;;5.70;;
5475;SDS011;2760;50.000;9.194;2023-07-09T21:05:58;7.60;;;5.33;;
5475;SDS011;2760;50.000;9.194;2023-07-09T21:08:26;9.53;;;4.77;;
5475;SDS011;2760;50.000;9.194;2023-07-09T21:10:54;8.53;;;5.03;;
5475;SDS011;2760;50.000;9.194;2023-07-09T21:13:22;9.60;;;5.77;;